Terminal Aerodrome Forecast
Issued by NWS

Home | Current Version | Previous Version | Text Only | Print | Product List | Glossary On
Versions: 1 2 3 4 5 6 7 8 9 10 11 12 13 14 15 16 17 18 19 20 21 22 23 24 25 26 27 28 29 30
000
FTPQ31 PGUM 252300
TAFPQ
TAF

PTKK 252324Z 2600/2624 30011KT P6SM VCSH SCT014 SCT030 BKN120
      TEMPO 2600/2603 5SM SHRA OVC014=

USA.gov is the U.S. government's official web portal to all federal, state and local government web resources and services.